This is the latest recevied weather packets stored in our database for station/object KQ4OSL. If no packets are shown the sender has not sent any weather packets the latest 1 day(s).
| Time | Temp. | Humidity | Pressure | Rain* | Wind** | Luminosity | Snow |
|---|---|---|---|---|---|---|---|
| 1778024182 | 22.22° C | 61% | 1015.5 hPa | 0 mm | 0 m/s | 34 W/m² | - |
| 1778023880 | 22.22° C | 60% | 1015.2 hPa | 0 mm | 0.89 m/s, 249° | 26 W/m² | - |
| 1778023577 | 22.22° C | 60% | 1015.4 hPa | 0 mm | 0.45 m/s, 252° | 43 W/m² | - |
| 1778023275 | 22.78° C | 58% | 1015.5 hPa | 0 mm | 0.89 m/s, 235° | 40 W/m² | - |
| 1778022971 | 22.78° C | 57% | 1015.4 hPa | 0 mm | 0.89 m/s, 257° | 37 W/m² | - |
| 1778022670 | 22.78° C | 58% | 1015.3 hPa | 0 mm | 0.45 m/s, 245° | 43 W/m² | - |
| 1778022368 | 22.78° C | 57% | 1015.5 hPa | 0 mm | 1.34 m/s, 226° | 44 W/m² | - |
| 1778022063 | 22.78° C | 59% | 1015.5 hPa | 0 mm | 0.45 m/s, 259° | 51 W/m² | - |
| 1778021760 | 23.33° C | 55% | 1015.5 hPa | 0 mm | 0 m/s | 36 W/m² | - |
| 1778021456 | 23.33° C | 54% | 1015.4 hPa | 0 mm | 2.24 m/s, 173° | 43 W/m² | - |
| 1778021153 | 23.33° C | 54% | 1015.4 hPa | 0 mm | 0.89 m/s, 261° | 47 W/m² | - |
| 1778020851 | 23.33° C | 54% | 1015.4 hPa | 0 mm | 0.89 m/s, 243° | 73 W/m² | - |
| 1778020548 | 23.33° C | 55% | 1015.4 hPa | 0 mm | 1.34 m/s, 190° | 67 W/m² | - |
| 1778020244 | 23.33° C | 53% | 1015.3 hPa | 0 mm | 2.24 m/s, 241° | 83 W/m² | - |
| 1778019940 | 23.89° C | 54% | 1015.2 hPa | 0 mm | 0.45 m/s, 254° | 37 W/m² | - |
| 1778019636 | 23.89° C | 53% | 1015.1 hPa | 0 mm | 1.34 m/s, 202° | 48 W/m² | - |
| 1778019334 | 23.89° C | 53% | 1015.1 hPa | 0 mm | 0.89 m/s, 216° | 66 W/m² | - |
| 1778019030 | 23.89° C | 52% | 1015.1 hPa | 0 mm | 1.34 m/s, 215° | 53 W/m² | - |
| 1778018727 | 23.89° C | 52% | 1015 hPa | 0 mm | 1.34 m/s, 196° | 136 W/m² | - |
| 1778018425 | 23.89° C | 51% | 1015 hPa | 0 mm | 0.89 m/s, 243° | 120 W/m² | - |
| 1778018126 | 23.89° C | 50% | 1015.1 hPa | 0 mm | 1.34 m/s, 218° | 49 W/m² | - |
| 1778017820 | 23.33° C | 50% | 1015 hPa | 0 mm | 2.68 m/s, 180° | 147 W/m² | - |
| 1778017519 | 23.89° C | 51% | 1015.2 hPa | 0 mm | 1.34 m/s, 216° | 129 W/m² | - |
| 1778017215 | 23.89° C | 50% | 1015.2 hPa | 0 mm | 2.24 m/s, 281° | 75 W/m² | - |
| 1778016913 | 23.89° C | 49% | 1015.2 hPa | 0 mm | 1.34 m/s, 222° | 75 W/m² | - |
* Rain latest hour (hover to see other rain measurements)
** Current wind speed in m/s (hover to see current wind gust speed)